createdAt,value
2023-01-13T00:00:19.699Z,2.70
2023-01-13T00:02:47.704Z,2.80
2023-01-13T00:05:15.645Z,2.80
2023-01-13T00:07:43.639Z,2.60
2023-01-13T00:10:13.181Z,2.60
2023-01-13T00:12:41.793Z,2.60
2023-01-13T00:15:13.468Z,2.50
2023-01-13T00:17:41.467Z,2.70
2023-01-13T00:20:10.834Z,2.50
2023-01-13T00:22:38.807Z,2.60
2023-01-13T00:25:07.291Z,2.50
2023-01-13T00:27:36.808Z,2.60
2023-01-13T00:30:05.657Z,2.80
2023-01-13T00:32:33.594Z,2.80
2023-01-13T00:35:01.567Z,2.70
2023-01-13T00:37:29.515Z,2.80
2023-01-13T00:39:57.985Z,2.60
2023-01-13T00:42:43.614Z,2.60
2023-01-13T00:45:13.109Z,2.50
2023-01-13T00:47:41.123Z,2.40
2023-01-13T00:50:10.489Z,2.50
2023-01-13T00:52:40.045Z,2.40
2023-01-13T00:55:09.907Z,2.60
2023-01-13T00:57:37.883Z,2.60
2023-01-13T01:00:06.377Z,2.60
2023-01-13T01:02:35.970Z,2.40
2023-01-13T01:05:03.950Z,2.50
2023-01-13T01:07:31.887Z,2.40
2023-01-13T01:09:59.807Z,2.30
2023-01-13T01:12:27.758Z,2.40
2023-01-13T01:14:55.709Z,2.50
2023-01-13T01:17:23.637Z,2.50
2023-01-13T01:19:52.953Z,2.60
2023-01-13T01:22:21.066Z,2.50
2023-01-13T01:24:49.039Z,2.50
2023-01-13T01:27:16.979Z,2.60
2023-01-13T01:29:44.942Z,2.60
2023-01-13T01:32:12.885Z,2.60
2023-01-13T01:34:40.822Z,2.60
2023-01-13T01:37:10.162Z,2.60
2023-01-13T01:39:38.116Z,2.60
2023-01-13T01:42:23.455Z,2.70
2023-01-13T01:45:02.227Z,2.60
2023-01-13T01:47:30.239Z,2.70
2023-01-13T01:49:58.204Z,2.80
2023-01-13T01:52:28.909Z,2.70
2023-01-13T01:54:59.494Z,2.80
2023-01-13T01:57:28.868Z,2.60
2023-01-13T01:59:56.862Z,2.70
2023-01-13T02:02:24.876Z,2.70
2023-01-13T02:04:53.369Z,2.60
2023-01-13T02:07:22.014Z,2.70
2023-01-13T02:09:51.339Z,2.80
2023-01-13T02:12:32.115Z,2.80
2023-01-13T02:15:01.988Z,2.80
2023-01-13T02:17:39.408Z,2.90
2023-01-13T02:20:26.018Z,3.00
2023-01-13T02:23:41.330Z,3.00
2023-01-13T02:26:27.374Z,3.10
2023-01-13T02:29:23.543Z,3.20
2023-01-13T02:31:52.860Z,3.10
2023-01-13T02:38:08.697Z,3.30
2023-01-13T02:40:39.100Z,3.40
2023-01-13T02:43:27.265Z,3.40
2023-01-13T02:45:56.863Z,3.30
2023-01-13T02:48:26.123Z,3.30
2023-01-13T02:50:56.947Z,3.20
2023-01-13T02:53:27.024Z,3.30
2023-01-13T02:55:55.541Z,3.20
2023-01-13T02:58:24.435Z,3.30
2023-01-13T03:00:52.325Z,3.60
2023-01-13T03:03:20.234Z,3.70
2023-01-13T03:05:50.707Z,3.70
2023-01-13T03:08:24.681Z,3.60
2023-01-13T03:10:57.685Z,3.50
2023-01-13T03:13:51.167Z,3.50
2023-01-13T03:16:23.805Z,3.40
2023-01-13T03:19:00.105Z,3.50
2023-01-13T03:21:31.313Z,3.60
2023-01-13T03:24:01.094Z,3.70
2023-01-13T03:26:31.573Z,3.70
2023-01-13T03:29:02.563Z,3.80
2023-01-13T03:31:32.463Z,3.80
2023-01-13T03:34:01.367Z,3.90
2023-01-13T03:36:30.518Z,3.90
2023-01-13T03:38:59.545Z,3.90
2023-01-13T03:41:28.905Z,3.80
2023-01-13T03:44:16.343Z,3.70
2023-01-13T03:46:45.923Z,3.70
2023-01-13T03:49:14.828Z,3.70
2023-01-13T03:51:44.823Z,3.60
2023-01-13T03:54:12.856Z,3.60
2023-01-13T03:56:41.954Z,3.60
2023-01-13T03:59:11.636Z,3.60
2023-01-13T04:01:43.023Z,3.50
2023-01-13T04:04:11.337Z,3.50
2023-01-13T04:06:43.166Z,3.40
2023-01-13T04:09:15.558Z,3.60
2023-01-13T04:11:44.899Z,3.60
2023-01-13T04:14:13.024Z,3.70
2023-01-13T04:16:40.859Z,3.70
2023-01-13T04:19:08.664Z,3.60
2023-01-13T04:21:36.443Z,3.60
2023-01-13T04:24:06.124Z,3.60
2023-01-13T04:26:33.906Z,3.60
2023-01-13T04:29:01.677Z,3.50
2023-01-13T04:31:29.454Z,3.50
2023-01-13T04:33:57.246Z,3.50
2023-01-13T04:36:27.608Z,3.60
2023-01-13T04:38:55.594Z,3.70
2023-01-13T04:41:24.719Z,3.60
2023-01-13T04:43:52.524Z,3.40
2023-01-13T04:46:20.353Z,3.40
2023-01-13T04:48:48.117Z,3.50
2023-01-13T04:51:15.894Z,3.50
2023-01-13T04:53:43.641Z,3.60
2023-01-13T04:56:11.409Z,3.60
2023-01-13T04:58:40.597Z,3.70
2023-01-13T05:01:08.422Z,3.70
2023-01-13T05:03:36.210Z,3.70
2023-01-13T05:06:04.022Z,3.70
2023-01-13T05:08:31.796Z,3.70
2023-01-13T05:11:01.140Z,3.80
2023-01-13T05:13:46.351Z,3.80
2023-01-13T05:16:33.204Z,3.80
2023-01-13T05:19:00.976Z,3.90
2023-01-13T05:21:46.162Z,3.90
2023-01-13T05:24:31.786Z,3.90
2023-01-13T05:26:59.573Z,4.00
2023-01-13T05:29:27.339Z,3.90
2023-01-13T05:31:56.465Z,3.90
2023-01-13T05:34:24.253Z,3.90
2023-01-13T05:36:52.032Z,4.00
2023-01-13T05:39:19.810Z,4.00
2023-01-13T05:42:13.679Z,4.00
2023-01-13T05:44:41.482Z,4.00
2023-01-13T05:47:10.641Z,4.10
2023-01-13T05:49:38.411Z,4.10
2023-01-13T05:52:06.487Z,4.20
2023-01-13T05:54:34.245Z,4.20
2023-01-13T05:57:02.041Z,4.10
2023-01-13T05:59:29.812Z,4.00
2023-01-13T06:01:57.573Z,4.10
2023-01-13T06:04:26.747Z,4.10
2023-01-13T06:06:55.911Z,4.00
2023-01-13T06:09:23.695Z,4.00
2023-01-13T06:11:51.443Z,3.80
2023-01-13T06:14:19.201Z,3.80
2023-01-13T06:16:47.156Z,3.90
2023-01-13T06:19:14.910Z,3.90
2023-01-13T06:21:44.877Z,3.90
2023-01-13T06:24:12.628Z,3.90
2023-01-13T06:26:41.427Z,4.00
2023-01-13T06:29:10.109Z,3.90
2023-01-13T06:31:38.445Z,4.00
2023-01-13T06:34:13.356Z,4.20
2023-01-13T06:36:42.406Z,4.20
2023-01-13T06:39:11.738Z,4.10
2023-01-13T06:41:57.132Z,4.00
2023-01-13T06:44:25.032Z,4.10
2023-01-13T06:46:52.915Z,4.00
2023-01-13T06:49:21.832Z,4.10
2023-01-13T06:51:49.664Z,4.10
2023-01-13T06:54:18.785Z,4.10
2023-01-13T06:56:46.566Z,4.10
2023-01-13T06:59:14.338Z,4.10
2023-01-13T07:01:42.343Z,4.10
2023-01-13T07:04:10.224Z,4.00
2023-01-13T07:06:38.047Z,4.20
2023-01-13T07:09:06.930Z,4.10
2023-01-13T07:11:36.132Z,4.10
2023-01-13T07:14:21.622Z,4.10
2023-01-13T07:16:49.465Z,4.10
2023-01-13T07:19:23.183Z,4.10
2023-01-13T07:21:51.868Z,4.10
2023-01-13T07:24:19.798Z,4.20
2023-01-13T07:26:48.913Z,4.20
2023-01-13T07:29:16.705Z,4.20
2023-01-13T07:31:44.523Z,4.50
2023-01-13T07:34:12.293Z,5.00
2023-01-13T07:36:40.200Z,5.40
2023-01-13T07:39:07.985Z,5.00
2023-01-13T07:41:53.550Z,4.70
2023-01-13T07:44:22.705Z,4.60
2023-01-13T07:46:50.493Z,4.50
2023-01-13T07:49:18.281Z,4.50
2023-01-13T07:51:46.047Z,4.50
2023-01-13T07:54:13.887Z,4.50
2023-01-13T07:56:41.637Z,4.50
2023-01-13T07:59:09.444Z,4.50
2023-01-13T08:01:38.684Z,4.50
2023-01-13T08:04:06.657Z,4.50
2023-01-13T08:06:34.452Z,4.50
2023-01-13T08:09:02.268Z,4.70
2023-01-13T08:11:30.032Z,4.40
2023-01-13T08:13:58.472Z,4.40
2023-01-13T08:16:26.375Z,4.50
2023-01-13T08:18:55.560Z,4.60
2023-01-13T08:21:23.332Z,4.60
2023-01-13T08:23:51.121Z,4.60
2023-01-13T08:26:19.499Z,4.50
2023-01-13T08:28:47.282Z,4.60
2023-01-13T08:31:17.086Z,4.70
2023-01-13T08:33:45.090Z,4.70
2023-01-13T08:36:14.289Z,4.70
2023-01-13T08:38:42.280Z,4.80
2023-01-13T08:41:11.060Z,4.90
2023-01-13T08:43:38.863Z,5.00
2023-01-13T08:46:06.999Z,5.10
2023-01-13T08:48:34.793Z,5.10
2023-01-13T08:51:03.372Z,5.10
2023-01-13T08:53:32.499Z,5.10
2023-01-13T08:56:00.315Z,5.10
2023-01-13T08:58:28.148Z,5.10
2023-01-13T09:00:55.997Z,5.20
2023-01-13T09:03:23.852Z,5.30
2023-01-13T09:05:51.676Z,5.40
2023-01-13T09:08:19.460Z,5.40
2023-01-13T09:10:48.582Z,5.40
2023-01-13T09:13:15.668Z,5.40
2023-01-13T09:15:44.987Z,5.40
2023-01-13T09:18:12.966Z,5.50
2023-01-13T09:20:41.175Z,5.60
2023-01-13T09:23:10.638Z,5.60
2023-01-13T09:25:39.162Z,5.70
2023-01-13T09:28:09.469Z,5.70
2023-01-13T09:30:38.268Z,5.70
2023-01-13T09:33:23.870Z,5.80
2023-01-13T09:35:51.742Z,5.80
2023-01-13T09:38:19.518Z,5.90
2023-01-13T09:40:48.052Z,6.00
2023-01-13T09:43:36.986Z,6.00
2023-01-13T09:46:06.334Z,6.00
2023-01-13T09:48:51.670Z,6.00
2023-01-13T09:51:21.185Z,6.00
2023-01-13T09:53:51.371Z,6.20
2023-01-13T09:56:19.162Z,6.30
2023-01-13T09:58:48.281Z,6.40
2023-01-13T10:01:20.005Z,6.60
2023-01-13T10:03:49.295Z,6.70
2023-01-13T10:06:18.744Z,6.80
2023-01-13T10:08:46.930Z,7.00
2023-01-13T10:11:33.257Z,7.10
2023-01-13T10:14:03.005Z,7.20
2023-01-13T10:16:41.074Z,7.30
2023-01-13T10:19:13.571Z,7.60
2023-01-13T10:22:15.701Z,8.20
2023-01-13T10:25:11.855Z,8.90
2023-01-13T10:27:40.087Z,9.40
2023-01-13T10:30:21.304Z,9.30
2023-01-13T10:32:51.394Z,9.00
2023-01-13T10:35:19.199Z,9.00
2023-01-13T10:37:57.615Z,9.60
2023-01-13T10:40:26.554Z,9.90
2023-01-13T10:43:06.423Z,10.00
2023-01-13T10:45:35.680Z,9.60
2023-01-13T10:48:06.772Z,9.30
2023-01-13T10:50:35.866Z,9.10
2023-01-13T10:53:07.293Z,9.00
2023-01-13T10:55:36.997Z,8.80
2023-01-13T10:58:14.747Z,8.80
2023-01-13T11:00:43.933Z,8.60
2023-01-13T11:03:15.411Z,8.60
2023-01-13T11:05:49.807Z,8.60
2023-01-13T11:08:18.216Z,8.50
2023-01-13T11:10:46.897Z,8.50
2023-01-13T11:13:16.135Z,8.50
2023-01-13T11:15:55.475Z,8.50
2023-01-13T11:18:27.684Z,9.10
2023-01-13T11:20:55.560Z,9.80
2023-01-13T11:23:27.364Z,10.60
2023-01-13T11:25:57.030Z,10.90
2023-01-13T11:28:41.638Z,11.10
2023-01-13T11:31:12.991Z,10.90
2023-01-13T11:33:42.710Z,11.20
2023-01-13T11:36:13.160Z,11.10
2023-01-13T11:38:48.318Z,11.30
2023-01-13T11:41:22.805Z,11.60
2023-01-13T11:43:52.675Z,11.40
2023-01-13T11:46:22.505Z,11.10
2023-01-13T11:48:51.345Z,11.30
2023-01-13T11:51:24.050Z,12.10
2023-01-13T11:53:59.750Z,12.40
2023-01-13T11:56:36.756Z,12.70
2023-01-13T11:59:34.442Z,12.70
2023-01-13T12:02:10.910Z,12.90
2023-01-13T12:04:42.263Z,13.00
2023-01-13T12:07:15.125Z,13.30
2023-01-13T12:09:49.841Z,13.20
2023-01-13T12:12:22.790Z,13.50
2023-01-13T12:14:59.605Z,13.10
2023-01-13T12:17:32.520Z,12.80
2023-01-13T12:20:00.322Z,12.60
2023-01-13T12:22:29.310Z,12.50
2023-01-13T12:24:59.146Z,12.50
2023-01-13T12:27:39.517Z,12.20
2023-01-13T12:30:18.062Z,12.00
2023-01-13T12:32:47.508Z,11.60
2023-01-13T12:35:27.929Z,11.40
2023-01-13T12:37:58.105Z,11.10
2023-01-13T12:40:38.701Z,11.00
2023-01-13T12:43:30.124Z,10.80
2023-01-13T12:46:31.053Z,10.80
2023-01-13T12:49:19.429Z,10.60
2023-01-13T12:52:07.837Z,10.50
2023-01-13T12:55:17.286Z,10.50
2023-01-13T12:58:13.092Z,10.40
2023-01-13T13:00:54.843Z,10.20
2023-01-13T13:03:35.143Z,10.20
2023-01-13T13:06:07.214Z,9.90
2023-01-13T13:08:44.754Z,9.20
2023-01-13T13:11:41.658Z,9.00
2023-01-13T13:14:12.462Z,8.80
2023-01-13T13:16:48.183Z,8.50
2023-01-13T13:19:44.258Z,8.40
2023-01-13T13:22:37.778Z,8.50
2023-01-13T13:25:26.205Z,8.20
2023-01-13T13:28:13.024Z,8.10
2023-01-13T13:30:41.694Z,8.10
2023-01-13T13:33:21.724Z,8.30
2023-01-13T13:35:56.659Z,8.30
2023-01-13T13:38:58.275Z,8.10
2023-01-13T13:41:44.125Z,8.20
2023-01-13T13:44:32.926Z,8.20
2023-01-13T13:47:01.957Z,8.30
2023-01-13T13:49:37.889Z,8.40
2023-01-13T13:52:10.816Z,8.30
2023-01-13T13:54:40.677Z,8.30
2023-01-13T13:57:17.666Z,8.50
2023-01-13T13:59:45.509Z,8.60
2023-01-13T14:02:18.452Z,8.50
2023-01-13T14:04:46.418Z,8.60
2023-01-13T14:07:20.556Z,8.50
2023-01-13T14:09:50.947Z,8.40
2023-01-13T14:12:20.413Z,8.40
2023-01-13T14:14:48.419Z,8.40
2023-01-13T14:17:21.219Z,8.40
2023-01-13T14:19:52.760Z,8.40
2023-01-13T14:22:20.574Z,8.40
2023-01-13T14:24:55.321Z,8.20
2023-01-13T14:27:23.324Z,8.20
2023-01-13T14:29:53.676Z,8.00
2023-01-13T14:32:22.259Z,8.00
2023-01-13T14:34:50.074Z,8.00
2023-01-13T14:37:31.717Z,8.00
2023-01-13T14:40:00.850Z,8.00
2023-01-13T14:42:29.718Z,8.00
2023-01-13T14:44:57.753Z,7.90
2023-01-13T14:47:27.902Z,8.00
2023-01-13T14:50:00.519Z,7.90
2023-01-13T14:52:29.792Z,7.80
2023-01-13T14:55:24.371Z,7.80
2023-01-13T14:57:52.402Z,7.80
2023-01-13T15:00:24.397Z,7.70
2023-01-13T15:03:01.954Z,7.70
2023-01-13T15:05:50.719Z,7.70
2023-01-13T15:08:29.416Z,7.70
2023-01-13T15:11:00.882Z,7.70
2023-01-13T15:13:38.589Z,7.60
2023-01-13T15:16:07.745Z,7.60
2023-01-13T15:18:39.904Z,7.50
2023-01-13T15:21:08.158Z,7.40
2023-01-13T15:23:36.016Z,7.30
2023-01-13T15:26:05.464Z,7.10
2023-01-13T15:28:33.264Z,7.10
2023-01-13T15:31:03.671Z,7.10
2023-01-13T15:33:32.003Z,7.00
2023-01-13T15:36:01.001Z,6.90
2023-01-13T15:38:28.817Z,6.80
2023-01-13T15:40:56.616Z,6.80
2023-01-13T15:43:43.172Z,6.70
2023-01-13T15:46:30.657Z,6.70
2023-01-13T15:48:58.647Z,6.70
2023-01-13T15:51:26.571Z,6.70
2023-01-13T15:53:54.371Z,6.70
2023-01-13T15:56:25.256Z,6.60
2023-01-13T15:58:54.412Z,6.50
2023-01-13T16:01:23.246Z,6.60
2023-01-13T16:03:52.127Z,6.60
2023-01-13T16:06:21.036Z,6.50
2023-01-13T16:08:48.819Z,6.50
2023-01-13T16:11:16.819Z,6.50
2023-01-13T16:13:44.601Z,6.50
2023-01-13T16:16:20.485Z,6.50
2023-01-13T16:18:48.326Z,6.50
2023-01-13T16:21:16.359Z,6.50
2023-01-13T16:23:44.178Z,6.50
2023-01-13T16:26:19.199Z,6.40
2023-01-13T16:28:47.056Z,6.40
2023-01-13T16:31:23.845Z,6.40
2023-01-13T16:33:51.795Z,6.40
2023-01-13T16:36:20.513Z,6.40
2023-01-13T16:38:48.575Z,6.40
2023-01-13T16:41:16.520Z,6.40
2023-01-13T16:43:44.339Z,6.30
2023-01-13T16:46:25.600Z,6.40
2023-01-13T16:48:54.018Z,6.30
2023-01-13T16:51:22.065Z,6.30
2023-01-13T16:53:49.894Z,6.40
2023-01-13T16:56:28.354Z,6.40
2023-01-13T16:58:56.885Z,6.40
2023-01-13T17:01:27.206Z,6.50
2023-01-13T17:03:55.190Z,6.60
2023-01-13T17:06:25.096Z,6.60
2023-01-13T17:08:53.962Z,6.60
2023-01-13T17:11:22.019Z,6.60
2023-01-13T17:13:49.823Z,6.60
2023-01-13T17:16:19.154Z,6.60
2023-01-13T17:18:48.506Z,6.60
2023-01-13T17:21:16.456Z,6.60
2023-01-13T17:23:44.322Z,6.60
2023-01-13T17:26:24.049Z,6.60
2023-01-13T17:28:51.840Z,6.60
2023-01-13T17:31:19.784Z,6.70
2023-01-13T17:33:48.936Z,6.60
2023-01-13T17:36:16.789Z,6.70
2023-01-13T17:38:44.736Z,6.70
2023-01-13T17:41:12.574Z,6.60
2023-01-13T17:43:40.472Z,6.50
2023-01-13T17:46:09.693Z,6.50
2023-01-13T17:48:37.517Z,6.40
2023-01-13T17:51:09.164Z,6.30
2023-01-13T17:53:40.655Z,6.30
2023-01-13T17:56:09.148Z,6.20
2023-01-13T17:58:37.031Z,6.20
2023-01-13T18:01:08.810Z,6.10
2023-01-13T18:03:36.806Z,5.90
2023-01-13T18:06:06.979Z,5.70
2023-01-13T18:08:34.866Z,5.60
2023-01-13T18:11:02.969Z,5.50
2023-01-13T18:13:31.207Z,5.40
2023-01-13T18:16:04.116Z,5.40
2023-01-13T18:18:31.942Z,5.30
2023-01-13T18:21:17.610Z,5.30
2023-01-13T18:24:09.914Z,5.20
2023-01-13T18:27:10.152Z,5.10
2023-01-13T18:29:37.938Z,5.10
2023-01-13T18:32:07.572Z,5.10
2023-01-13T18:34:35.722Z,5.00
2023-01-13T18:37:03.585Z,5.00
2023-01-13T18:39:32.787Z,4.90
2023-01-13T18:42:18.345Z,4.90
2023-01-13T18:44:46.133Z,4.90
2023-01-13T18:47:13.935Z,4.90
2023-01-13T18:49:41.786Z,4.80
2023-01-13T18:52:09.601Z,4.60
2023-01-13T18:54:38.773Z,4.60
2023-01-13T18:57:06.601Z,4.50
2023-01-13T18:59:34.810Z,4.40
2023-01-13T19:02:02.733Z,4.50
2023-01-13T19:04:32.429Z,4.40
2023-01-13T19:07:01.057Z,4.40
2023-01-13T19:09:29.564Z,4.40
2023-01-13T19:11:59.115Z,4.50
2023-01-13T19:14:37.571Z,4.40
2023-01-13T19:17:09.265Z,4.50
2023-01-13T19:19:40.367Z,4.30
2023-01-13T19:22:08.367Z,4.40
2023-01-13T19:24:36.187Z,4.30
2023-01-13T19:27:05.495Z,4.40
2023-01-13T19:29:34.003Z,4.60
2023-01-13T19:32:01.860Z,4.40
2023-01-13T19:34:29.917Z,4.60
2023-01-13T19:36:57.730Z,4.50
2023-01-13T19:39:25.585Z,4.50
2023-01-13T19:42:11.068Z,4.40
2023-01-13T19:44:57.778Z,4.40
2023-01-13T19:47:25.617Z,4.60
2023-01-13T19:49:54.591Z,4.50
2023-01-13T19:52:22.408Z,4.50
2023-01-13T19:54:50.263Z,4.50
2023-01-13T19:57:18.053Z,4.40
2023-01-13T19:59:47.211Z,4.50
2023-01-13T20:02:28.274Z,4.40
2023-01-13T20:04:56.888Z,4.40
2023-01-13T20:07:24.925Z,4.40
2023-01-13T20:09:52.984Z,4.30
2023-01-13T20:12:21.169Z,4.40
2023-01-13T20:14:50.365Z,4.40
2023-01-13T20:17:19.091Z,4.50
2023-01-13T20:19:46.978Z,4.50
2023-01-13T20:22:14.907Z,4.50
2023-01-13T20:24:42.850Z,4.50
2023-01-13T20:27:10.663Z,4.50
2023-01-13T20:29:39.416Z,4.50
2023-01-13T20:32:08.561Z,4.60
2023-01-13T20:34:36.378Z,4.60
2023-01-13T20:37:04.164Z,4.70
2023-01-13T20:39:33.191Z,4.70
2023-01-13T20:42:18.663Z,4.70
2023-01-13T20:44:46.797Z,4.70
2023-01-13T20:47:16.812Z,4.70
2023-01-13T20:49:44.654Z,4.70
2023-01-13T20:52:12.619Z,4.70
2023-01-13T20:54:41.018Z,4.70
2023-01-13T20:57:09.784Z,4.70
2023-01-13T20:59:37.811Z,4.70
2023-01-13T21:02:06.514Z,4.70
2023-01-13T21:04:35.668Z,4.80
2023-01-13T21:07:03.508Z,4.80
2023-01-13T21:09:32.272Z,4.80
2023-01-13T21:12:17.872Z,4.80
2023-01-13T21:15:03.346Z,4.90
2023-01-13T21:17:48.748Z,4.90
2023-01-13T21:20:18.162Z,5.00
2023-01-13T21:22:46.316Z,5.00
2023-01-13T21:25:14.199Z,5.00
2023-01-13T21:27:43.883Z,5.00
2023-01-13T21:30:14.725Z,5.00
2023-01-13T21:32:42.685Z,5.10
2023-01-13T21:35:10.849Z,5.00
2023-01-13T21:37:40.045Z,4.90
2023-01-13T21:40:10.097Z,4.00
2023-01-13T21:42:55.558Z,3.40
2023-01-13T21:45:41.043Z,3.10
2023-01-13T21:48:08.922Z,3.00
2023-01-13T21:50:37.852Z,3.20
2023-01-13T21:53:07.872Z,3.40
2023-01-13T21:55:36.713Z,3.60
2023-01-13T21:58:11.996Z,3.50
2023-01-13T22:00:40.156Z,3.40
2023-01-13T22:03:08.706Z,3.50
2023-01-13T22:05:36.794Z,3.70
2023-01-13T22:08:06.282Z,3.70
2023-01-13T22:10:34.300Z,3.60
2023-01-13T22:13:23.238Z,3.60
2023-01-13T22:15:51.139Z,3.50
2023-01-13T22:18:18.963Z,3.40
2023-01-13T22:20:46.810Z,3.40
2023-01-13T22:23:16.027Z,3.40
2023-01-13T22:25:43.831Z,3.40
2023-01-13T22:28:13.849Z,3.50
2023-01-13T22:30:41.676Z,3.60
2023-01-13T22:33:09.480Z,3.60
2023-01-13T22:35:38.477Z,3.50
2023-01-13T22:38:06.284Z,3.50
2023-01-13T22:40:35.433Z,3.40
2023-01-13T22:43:03.219Z,3.40
2023-01-13T22:45:31.025Z,3.30
2023-01-13T22:47:59.428Z,3.30
2023-01-13T22:50:27.231Z,3.40
2023-01-13T22:52:55.017Z,3.40
2023-01-13T22:55:22.780Z,3.30
2023-01-13T22:57:51.949Z,3.20
2023-01-13T23:00:20.854Z,3.30
2023-01-13T23:02:48.658Z,3.40
2023-01-13T23:05:16.611Z,3.40
2023-01-13T23:07:44.442Z,3.40
2023-01-13T23:10:12.767Z,3.50
2023-01-13T23:12:40.574Z,3.60
2023-01-13T23:15:10.704Z,3.40
2023-01-13T23:17:38.530Z,3.40
2023-01-13T23:20:06.834Z,3.40
2023-01-13T23:22:38.475Z,3.40
2023-01-13T23:25:07.051Z,3.40
2023-01-13T23:27:35.285Z,3.20
2023-01-13T23:30:03.091Z,3.30
2023-01-13T23:32:32.316Z,3.30
2023-01-13T23:35:00.108Z,3.20
2023-01-13T23:37:27.958Z,3.40
2023-01-13T23:39:55.740Z,3.40
2023-01-13T23:42:23.567Z,3.30
2023-01-13T23:44:51.361Z,3.40
2023-01-13T23:47:19.155Z,3.20
2023-01-13T23:49:48.288Z,3.40
2023-01-13T23:52:16.111Z,3.10
2023-01-13T23:54:43.895Z,3.00
2023-01-13T23:57:11.709Z,3.20
2023-01-13T23:59:39.533Z,3.30
